Time;durP1;ratioP1;P1;durP2;ratioP2;P2;SDS_P1;SDS_P2;PMS_P1;PMS_P2;Temp;Humidity;BMP_temperature;BMP_pressure;BME280_temperature;BME280_humidity;BME280_pressure;Samples;Min_cycle;Max_cycle;Signal;HPM_P1;HPM_P2
2021/07/05 00:01:54;;;;;;;7.65;2.55;;;;;;;;;;6208881;23;20171;-88
2021/07/05 00:05:07;;;;;;;6.03;2.15;;;;;;;;;;6210432;23;20195;-88
2021/07/05 00:08:12;;;;;;;8.25;2.55;;;;;;;;;;6209626;23;20217;-89
2021/07/05 00:11:18;;;;;;;5.68;2.92;;;;;;;;;;6210224;23;20246;-88
2021/07/05 00:14:23;;;;;;;3.85;2.67;;;;;;;;;;6211307;23;20670;-88
2021/07/05 00:17:28;;;;;;;4.22;2.50;;;;;;;;;;6209915;23;20170;-89
2021/07/05 00:20:38;;;;;;;4.18;2.40;;;;;;;;;;6209192;23;20215;-88
2021/07/05 00:23:43;;;;;;;5.05;2.75;;;;;;;;;;6208886;23;20187;-87
2021/07/05 00:26:49;;;;;;;4.80;2.45;;;;;;;;;;6207828;22;20210;-87
2021/07/05 00:29:54;;;;;;;5.95;2.58;;;;;;;;;;6208655;23;20566;-87
2021/07/05 00:32:58;;;;;;;3.97;2.53;;;;;;;;;;6207414;23;20303;-88
2021/07/05 00:36:05;;;;;;;3.58;2.60;;;;;;;;;;6207043;23;20666;-88
2021/07/05 00:39:11;;;;;;;4.78;2.38;;;;;;;;;;6208139;23;20166;-88
2021/07/05 00:42:16;;;;;;;5.45;2.35;;;;;;;;;;6208534;23;20174;-88
2021/07/05 00:45:21;;;;;;;3.72;2.00;;;;;;;;;;6210643;23;20167;-87
2021/07/05 00:48:28;;;;;;;3.25;2.00;;;;;;;;;;6207921;23;20175;-88
2021/07/05 00:51:39;;;;;;;5.10;1.88;;;;;;;;;;6210043;23;20175;-88
2021/07/05 00:54:46;;;;;;;4.82;1.85;;;;;;;;;;6209063;23;20270;-86
2021/07/05 00:57:51;;;;;;;3.42;2.10;;;;;;;;;;6208176;23;20174;-87
2021/07/05 01:00:56;;;;;;;3.70;1.75;;;;;;;;;;6207601;23;20171;-87
2021/07/05 01:04:02;;;;;;;3.95;2.05;;;;;;;;;;6209591;23;20733;-88
2021/07/05 01:07:08;;;;;;;3.00;1.90;;;;;;;;;;6209587;23;20498;-89
2021/07/05 01:10:14;;;;;;;8.65;2.15;;;;;;;;;;6209919;23;20190;-87
2021/07/05 01:13:19;;;;;;;3.20;2.00;;;;;;;;;;6209150;23;20174;-87
2021/07/05 01:16:24;;;;;;;2.63;1.80;;;;;;;;;;6209496;23;20274;-87
2021/07/05 01:19:30;;;;;;;4.20;2.45;;;;;;;;;;6209958;23;20171;-87
2021/07/05 01:22:37;;;;;;;6.07;2.40;;;;;;;;;;6208622;23;20223;-89
2021/07/05 01:25:42;;;;;;;4.47;2.45;;;;;;;;;;6209440;23;20166;-87
2021/07/05 01:28:48;;;;;;;5.55;2.40;;;;;;;;;;6209502;23;20167;-89
2021/07/05 01:31:53;;;;;;;3.22;2.38;;;;;;;;;;6207493;23;20234;-89
2021/07/05 01:34:58;;;;;;;6.70;2.30;;;;;;;;;;6209987;23;20150;-88
2021/07/05 01:38:10;;;;;;;5.43;2.20;;;;;;;;;;6207725;23;20496;-88
2021/07/05 01:41:14;;;;;;;4.07;2.13;;;;;;;;;;6213687;23;20175;-88
2021/07/05 01:44:20;;;;;;;5.40;2.20;;;;;;;;;;6205567;23;20171;-88
2021/07/05 01:47:26;;;;;;;3.17;2.10;;;;;;;;;;6206215;23;20171;-87
2021/07/05 01:50:31;;;;;;;5.72;2.28;;;;;;;;;;6208662;23;20175;-87
2021/07/05 01:53:38;;;;;;;7.60;2.20;;;;;;;;;;6206531;23;20291;-89
2021/07/05 01:56:43;;;;;;;5.88;2.35;;;;;;;;;;6208469;23;20191;-88
2021/07/05 01:59:48;;;;;;;2.85;2.20;;;;;;;;;;6207449;23;20171;-88
2021/07/05 02:02:53;;;;;;;3.00;2.03;;;;;;;;;;6207349;23;20239;-88
2021/07/05 02:05:58;;;;;;;5.38;1.90;;;;;;;;;;6207321;23;20186;-88
2021/07/05 02:09:06;;;;;;;3.95;2.00;;;;;;;;;;6207634;23;20171;-88
2021/07/05 02:12:11;;;;;;;4.05;2.10;;;;;;;;;;6207946;23;20179;-87
2021/07/05 02:15:17;;;;;;;5.63;1.90;;;;;;;;;;6206224;23;20642;-88
2021/07/05 02:18:22;;;;;;;2.67;1.88;;;;;;;;;;6225486;22;20175;-88
2021/07/05 02:21:27;;;;;;;3.85;2.08;;;;;;;;;;6206994;23;20182;-87
2021/07/05 02:24:34;;;;;;;3.03;1.98;;;;;;;;;;6208665;23;20175;-88
2021/07/05 02:27:42;;;;;;;3.88;2.30;;;;;;;;;;6208822;23;20166;-88
2021/07/05 02:30:48;;;;;;;2.72;1.88;;;;;;;;;;6209137;23;20495;-88
2021/07/05 02:33:53;;;;;;;4.95;1.95;;;;;;;;;;6209197;23;20175;-89
2021/07/05 02:36:58;;;;;;;3.72;1.85;;;;;;;;;;6208467;23;20194;-88
2021/07/05 02:40:07;;;;;;;4.55;1.70;;;;;;;;;;6208665;23;20167;-87
2021/07/05 02:43:13;;;;;;;4.43;2.20;;;;;;;;;;6207005;23;20171;-88
2021/07/05 02:46:18;;;;;;;7.75;2.00;;;;;;;;;;6209052;23;20171;-88
2021/07/05 02:49:24;;;;;;;4.50;2.13;;;;;;;;;;6207824;22;20221;-88
2021/07/05 02:52:28;;;;;;;4.28;2.10;;;;;;;;;;6207696;23;20734;-89
2021/07/05 02:55:35;;;;;;;3.40;1.92;;;;;;;;;;6207600;23;20191;-88
2021/07/05 02:58:40;;;;;;;4.97;1.92;;;;;;;;;;6206634;23;20179;-88
2021/07/05 03:01:48;;;;;;;3.65;1.92;;;;;;;;;;6207748;23;20203;-89
2021/07/05 03:04:53;;;;;;;3.78;1.70;;;;;;;;;;6206959;23;20631;-88
2021/07/05 03:07:59;;;;;;;6.95;2.00;;;;;;;;;;6207765;23;20166;-88
2021/07/05 03:11:08;;;;;;;4.50;1.98;;;;;;;;;;6207333;23;20179;-89
2021/07/05 03:14:19;;;;;;;3.25;1.90;;;;;;;;;;6206002;23;20171;-89
2021/07/05 03:17:24;;;;;;;4.05;1.80;;;;;;;;;;6207273;23;20195;-89
2021/07/05 03:20:30;;;;;;;6.78;2.13;;;;;;;;;;6207274;23;20171;-90
2021/07/05 03:23:38;;;;;;;3.78;1.90;;;;;;;;;;6208040;23;20175;-88
2021/07/05 03:26:44;;;;;;;6.10;1.98;;;;;;;;;;6207972;23;20211;-87
2021/07/05 03:29:50;;;;;;;5.53;1.65;;;;;;;;;;6207085;23;20175;-89
2021/07/05 03:32:55;;;;;;;5.90;1.90;;;;;;;;;;6207749;23;20182;-88
2021/07/05 03:36:00;;;;;;;4.63;2.47;;;;;;;;;;6207243;23;20653;-88
2021/07/05 03:39:07;;;;;;;5.40;2.00;;;;;;;;;;6208836;23;20166;-88
2021/07/05 03:42:13;;;;;;;9.32;2.22;;;;;;;;;;6208464;23;20171;-88
2021/07/05 03:45:20;;;;;;;4.03;2.08;;;;;;;;;;6208925;23;20170;-88
2021/07/05 03:48:25;;;;;;;4.50;2.03;;;;;;;;;;6208584;23;20163;-89
2021/07/05 03:51:30;;;;;;;2.53;1.70;;;;;;;;;;6207826;23;20218;-89
2021/07/05 03:54:36;;;;;;;3.92;1.67;;;;;;;;;;6208006;23;20175;-88
2021/07/05 03:57:42;;;;;;;5.88;1.90;;;;;;;;;;6207643;23;20242;-89
2021/07/05 04:00:48;;;;;;;7.93;2.00;;;;;;;;;;6206623;23;20649;-89
2021/07/05 04:03:53;;;;;;;6.78;2.10;;;;;;;;;;6207530;23;20242;-90
2021/07/05 04:06:59;;;;;;;14.95;6.90;;;;;;;;;;6208427;23;20224;-89
2021/07/05 04:10:05;;;;;;;4.60;2.33;;;;;;;;;;6205996;23;20171;-89
2021/07/05 04:13:12;;;;;;;5.32;2.30;;;;;;;;;;6208334;23;20174;-88
2021/07/05 04:16:18;;;;;;;4.82;1.80;;;;;;;;;;6207083;23;20214;-89
2021/07/05 04:19:23;;;;;;;5.65;1.90;;;;;;;;;;6207420;23;20171;-90
2021/07/05 04:25:47;;;;;;;4.32;1.80;;;;;;;;;;6209098;23;20174;-88
2021/07/05 04:28:54;;;;;;;7.22;1.73;;;;;;;;;;6207588;23;20174;-89
2021/07/05 04:32:02;;;;;;;6.18;1.70;;;;;;;;;;6145542;23;1313444;-88
2021/07/05 04:35:09;;;;;;;8.20;1.75;;;;;;;;;;6217733;23;20159;-87
2021/07/05 04:38:14;;;;;;;3.35;2.00;;;;;;;;;;6210183;23;20499;-89
2021/07/05 04:41:19;;;;;;;4.50;1.70;;;;;;;;;;6209617;23;20267;-88
2021/07/05 04:44:26;;;;;;;7.30;1.70;;;;;;;;;;6211203;23;20194;-88
2021/07/05 04:47:31;;;;;;;4.78;1.63;;;;;;;;;;6209278;23;20166;-90
2021/07/05 04:50:36;;;;;;;3.10;1.83;;;;;;;;;;6209869;23;20198;-89
2021/07/05 04:53:46;;;;;;;4.22;1.70;;;;;;;;;;6210764;23;20163;-89
2021/07/05 04:56:51;;;;;;;5.15;1.60;;;;;;;;;;6208755;23;20191;-89
2021/07/05 04:59:58;;;;;;;4.30;1.77;;;;;;;;;;6208393;23;20215;-88
2021/07/05 05:03:04;;;;;;;7.65;1.98;;;;;;;;;;6211704;23;20299;-89
2021/07/05 05:06:09;;;;;;;7.10;1.90;;;;;;;;;;6210533;23;20574;-88
2021/07/05 05:09:14;;;;;;;2.88;1.58;;;;;;;;;;6208916;23;20178;-87
2021/07/05 05:12:20;;;;;;;8.32;1.60;;;;;;;;;;6209698;23;20171;-89
2021/07/05 05:15:27;;;;;;;6.60;1.60;;;;;;;;;;6210555;23;20214;-88
2021/07/05 05:18:34;;;;;;;4.72;1.55;;;;;;;;;;6209598;23;20178;-89
2021/07/05 05:21:42;;;;;;;3.08;1.38;;;;;;;;;;6208677;23;20501;-89
2021/07/05 05:24:48;;;;;;;3.13;1.60;;;;;;;;;;6212068;23;20179;-87
2021/07/05 05:27:53;;;;;;;3.67;1.35;;;;;;;;;;6206439;23;20187;-88
2021/07/05 05:31:00;;;;;;;4.20;1.30;;;;;;;;;;6207927;23;20159;-89
2021/07/05 05:34:05;;;;;;;3.10;1.38;;;;;;;;;;6207599;23;20242;-88
2021/07/05 05:37:10;;;;;;;6.22;1.90;;;;;;;;;;6210654;23;20207;-88
2021/07/05 05:40:16;;;;;;;4.15;2.10;;;;;;;;;;6209765;23;20171;-88
2021/07/05 05:43:21;;;;;;;5.72;1.30;;;;;;;;;;6207541;23;20303;-89
2021/07/05 05:46:32;;;;;;;9.07;2.13;;;;;;;;;;6207065;23;20171;-90
2021/07/05 05:49:40;;;;;;;6.47;1.40;;;;;;;;;;6210374;23;20251;-88
2021/07/05 05:52:49;;;;;;;9.63;1.80;;;;;;;;;;6207994;22;20254;-88
2021/07/05 05:55:55;;;;;;;6.47;1.35;;;;;;;;;;6207978;23;20208;-87
2021/07/05 05:59:02;;;;;;;5.28;1.52;;;;;;;;;;6208010;23;20171;-89
2021/07/05 06:02:09;;;;;;;4.00;1.65;;;;;;;;;;6209070;23;20172;-87
2021/07/05 06:05:15;;;;;;;4.63;1.33;;;;;;;;;;6209806;23;20175;-90
2021/07/05 06:08:20;;;;;;;5.45;1.40;;;;;;;;;;6208511;23;20462;-89
2021/07/05 06:11:25;;;;;;;3.63;1.48;;;;;;;;;;6209493;23;20171;-88
2021/07/05 06:14:33;;;;;;;4.13;1.52;;;;;;;;;;6207565;23;20175;-89
2021/07/05 06:17:44;;;;;;;4.60;1.40;;;;;;;;;;6211856;23;20234;-88
2021/07/05 06:20:49;;;;;;;4.45;1.65;;;;;;;;;;6208630;23;20282;-88
2021/07/05 06:23:54;;;;;;;3.13;1.33;;;;;;;;;;6209544;23;20187;-89
2021/07/05 06:26:59;;;;;;;5.15;1.70;;;;;;;;;;6209014;23;20176;-90
2021/07/05 06:30:13;;;;;;;4.75;1.50;;;;;;;;;;6207320;23;20183;-89
2021/07/05 06:33:24;;;;;;;4.60;2.03;;;;;;;;;;6208715;23;20178;-89
2021/07/05 06:36:29;;;;;;;4.70;1.55;;;;;;;;;;6209410;23;20195;-89
2021/07/05 06:39:35;;;;;;;4.45;1.80;;;;;;;;;;6211717;23;20241;-89
2021/07/05 06:42:41;;;;;;;2.38;1.90;;;;;;;;;;6210552;23;20232;-90
2021/07/05 06:45:46;;;;;;;3.78;2.20;;;;;;;;;;6209011;23;20175;-89
2021/07/05 06:48:53;;;;;;;5.75;2.28;;;;;;;;;;6210296;23;20159;-89
2021/07/05 06:51:58;;;;;;;6.13;2.15;;;;;;;;;;6210449;23;20175;-89
2021/07/05 06:55:04;;;;;;;2.08;1.70;;;;;;;;;;6213220;23;20171;-90
2021/07/05 06:58:09;;;;;;;3.40;1.83;;;;;;;;;;6214303;22;20183;-89
2021/07/05 07:04:47;;;;;;;8.77;2.10;;;;;;;;;;6209406;23;20257;-89
2021/07/05 07:07:56;;;;;;;6.75;1.98;;;;;;;;;;6209536;23;20167;-88
2021/07/05 07:11:02;;;;;;;3.63;1.67;;;;;;;;;;6211481;23;20187;-90
2021/07/05 07:14:12;;;;;;;2.97;1.77;;;;;;;;;;6212460;23;20183;-89
2021/07/05 07:17:23;;;;;;;3.95;1.88;;;;;;;;;;6210807;23;20195;-90
2021/07/05 07:20:44;;;;;;;6.07;1.58;;;;;;;;;;6210932;23;20171;-89
2021/07/05 07:24:05;;;;;;;9.10;1.55;;;;;;;;;;6213610;23;20167;-88
2021/07/05 07:27:12;;;;;;;2.08;1.20;;;;;;;;;;6213392;23;20278;-89
2021/07/05 07:30:19;;;;;;;3.10;1.33;;;;;;;;;;6214490;23;20171;-88
2021/07/05 07:33:24;;;;;;;1.58;1.30;;;;;;;;;;6217114;23;20194;-90
2021/07/05 07:36:31;;;;;;;6.70;2.22;;;;;;;;;;6218914;23;20618;-89
2021/07/05 07:39:41;;;;;;;6.28;1.90;;;;;;;;;;6217167;23;20191;-89
2021/07/05 07:42:47;;;;;;;3.25;1.55;;;;;;;;;;6214476;23;20174;-89
2021/07/05 07:46:00;;;;;;;3.35;1.38;;;;;;;;;;6210839;23;20319;-89
2021/07/05 07:49:05;;;;;;;4.05;1.40;;;;;;;;;;6209642;23;20191;-88
2021/07/05 07:52:11;;;;;;;4.10;1.33;;;;;;;;;;6209372;23;20179;-89
2021/07/05 07:55:18;;;;;;;2.13;1.35;;;;;;;;;;6208804;23;20171;-89
2021/07/05 07:58:23;;;;;;;2.70;1.45;;;;;;;;;;6207649;23;20273;-89
2021/07/05 08:01:30;;;;;;;2.28;1.25;;;;;;;;;;6209845;23;20214;-88
2021/07/05 08:04:35;;;;;;;2.97;1.33;;;;;;;;;;6208439;23;20650;-88
2021/07/05 08:07:42;;;;;;;7.30;1.30;;;;;;;;;;6227769;23;20155;-89
2021/07/05 08:10:50;;;;;;;3.00;1.20;;;;;;;;;;6208453;23;20170;-90
2021/07/05 08:13:56;;;;;;;4.13;1.33;;;;;;;;;;6207366;23;20303;-90
2021/07/05 08:17:02;;;;;;;4.57;1.30;;;;;;;;;;6210265;23;20218;-88
2021/07/05 08:20:10;;;;;;;4.38;1.35;;;;;;;;;;6209264;23;20243;-88
2021/07/05 08:23:15;;;;;;;2.40;1.17;;;;;;;;;;6208182;23;20248;-87
2021/07/05 08:26:22;;;;;;;1.75;1.00;;;;;;;;;;6209499;23;20168;-87
2021/07/05 08:29:27;;;;;;;4.60;1.00;;;;;;;;;;6208349;23;20171;-87
2021/07/05 08:32:33;;;;;;;4.15;1.20;;;;;;;;;;6225406;23;20185;-88
2021/07/05 08:35:38;;;;;;;2.67;1.20;;;;;;;;;;6207883;23;20594;-88
2021/07/05 08:38:43;;;;;;;6.38;1.85;;;;;;;;;;6208851;23;20199;-89
2021/07/05 08:41:52;;;;;;;4.90;1.20;;;;;;;;;;6208522;23;20167;-88
2021/07/05 08:44:57;;;;;;;1.38;1.23;;;;;;;;;;6206952;23;20168;-87
2021/07/05 08:48:04;;;;;;;3.28;1.05;;;;;;;;;;6207672;23;20163;-87
2021/07/05 08:51:10;;;;;;;1.70;1.00;;;;;;;;;;6208426;23;20223;-88
2021/07/05 08:54:17;;;;;;;5.47;1.02;;;;;;;;;;6208080;23;20170;-87
2021/07/05 08:57:37;;;;;;;3.65;1.20;;;;;;;;;;6206738;23;20741;-87
2021/07/05 09:00:43;;;;;;;5.28;1.13;;;;;;;;;;6208147;23;20166;-87
2021/07/05 09:03:50;;;;;;;3.05;0.98;;;;;;;;;;6208031;23;20170;-89
2021/07/05 09:07:03;;;;;;;3.72;1.02;;;;;;;;;;6207670;23;20576;-89
2021/07/05 09:10:09;;;;;;;1.67;0.93;;;;;;;;;;6207238;23;20199;-89
2021/07/05 09:13:20;;;;;;;2.65;1.15;;;;;;;;;;6209590;23;20194;-88
2021/07/05 09:16:29;;;;;;;2.83;1.00;;;;;;;;;;6207442;23;20243;-88
2021/07/05 09:19:34;;;;;;;2.42;1.20;;;;;;;;;;6210174;23;20191;-88
2021/07/05 09:22:39;;;;;;;4.05;1.30;;;;;;;;;;6211932;23;20245;-90
2021/07/05 09:25:46;;;;;;;1.75;1.10;;;;;;;;;;6208993;22;20167;-87
2021/07/05 09:28:53;;;;;;;1.48;1.08;;;;;;;;;;6210110;23;20172;-87
2021/07/05 09:31:59;;;;;;;4.00;1.58;;;;;;;;;;6208350;23;20247;-88
2021/07/05 09:35:13;;;;;;;4.82;1.10;;;;;;;;;;6208590;23;20163;-89
2021/07/05 09:38:32;;;;;;;2.22;1.02;;;;;;;;;;6208837;23;20526;-90
2021/07/05 09:41:37;;;;;;;3.08;1.10;;;;;;;;;;6209475;23;20483;-90
2021/07/05 09:44:47;;;;;;;2.50;0.90;;;;;;;;;;6211547;23;20225;-89
2021/07/05 09:48:12;;;;;;;2.53;1.00;;;;;;;;;;6211372;23;20170;-89
2021/07/05 09:51:19;;;;;;;1.95;1.10;;;;;;;;;;6209637;23;20166;-88
2021/07/05 09:54:25;;;;;;;1.60;0.98;;;;;;;;;;6208143;23;20170;-89
2021/07/05 09:57:35;;;;;;;1.40;1.00;;;;;;;;;;6210283;22;20159;-89
2021/07/05 10:00:41;;;;;;;2.30;0.90;;;;;;;;;;6209755;23;20190;-89
2021/07/05 10:03:47;;;;;;;1.40;0.85;;;;;;;;;;6210141;23;20182;-89
2021/07/05 10:06:53;;;;;;;6.35;1.00;;;;;;;;;;6209243;23;20193;-87
2021/07/05 10:09:58;;;;;;;3.67;1.13;;;;;;;;;;6210378;23;20162;-88
2021/07/05 10:13:03;;;;;;;2.90;0.85;;;;;;;;;;6208219;23;20248;-89
2021/07/05 10:16:12;;;;;;;4.05;0.90;;;;;;;;;;6208530;23;20170;-88
2021/07/05 10:19:18;;;;;;;6.13;1.17;;;;;;;;;;6207937;23;20162;-88
2021/07/05 10:22:26;;;;;;;1.52;0.80;;;;;;;;;;6210598;23;20214;-88
2021/07/05 10:25:33;;;;;;;2.47;0.90;;;;;;;;;;6210252;23;20253;-89
2021/07/05 10:28:39;;;;;;;1.83;1.10;;;;;;;;;;6208791;23;20266;-90
2021/07/05 10:31:46;;;;;;;4.13;1.20;;;;;;;;;;6212018;23;20210;-89
2021/07/05 10:34:53;;;;;;;1.23;0.90;;;;;;;;;;6211296;23;20170;-88
2021/07/05 10:37:59;;;;;;;2.88;0.90;;;;;;;;;;6209224;23;20166;-90
2021/07/05 10:41:09;;;;;;;3.00;1.23;;;;;;;;;;6214858;23;20241;-89
2021/07/05 10:44:20;;;;;;;5.63;0.98;;;;;;;;;;6216388;23;20171;-89
2021/07/05 10:47:46;;;;;;;1.33;0.80;;;;;;;;;;6213917;23;20174;-89
2021/07/05 10:50:58;;;;;;;3.30;0.80;;;;;;;;;;6215027;22;20213;-88
2021/07/05 10:54:03;;;;;;;3.70;1.00;;;;;;;;;;6216855;22;20158;-88
2021/07/05 10:57:08;;;;;;;3.17;0.80;;;;;;;;;;6212715;23;20162;-88
2021/07/05 11:00:17;;;;;;;3.53;1.05;;;;;;;;;;6214714;22;20298;-89
2021/07/05 11:07:12;;;;;;;6.22;0.88;;;;;;;;;;6217844;22;20233;-90
2021/07/05 11:10:20;;;;;;;1.00;0.77;;;;;;;;;;6234929;23;20210;-89
2021/07/05 11:13:32;;;;;;;1.15;0.80;;;;;;;;;;6215533;23;20169;-88
2021/07/05 11:16:53;;;;;;;2.92;1.00;;;;;;;;;;6216758;23;20183;-88
2021/07/05 11:19:59;;;;;;;4.25;1.10;;;;;;;;;;6215657;23;20655;-89
2021/07/05 11:23:07;;;;;;;2.70;1.00;;;;;;;;;;6216317;23;20166;-89
2021/07/05 11:26:19;;;;;;;4.68;1.15;;;;;;;;;;6212254;23;20546;-89
2021/07/05 11:29:46;;;;;;;3.70;1.00;;;;;;;;;;6205859;23;20240;-88
2021/07/05 11:32:52;;;;;;;4.32;1.15;;;;;;;;;;6205851;23;20193;-89
2021/07/05 11:35:59;;;;;;;2.70;1.05;;;;;;;;;;6208519;23;20158;-90
2021/07/05 11:39:08;;;;;;;1.42;0.80;;;;;;;;;;6206551;23;20241;-89
2021/07/05 11:42:13;;;;;;;2.25;1.00;;;;;;;;;;6208006;23;20170;-89
2021/07/05 11:45:38;;;;;;;4.15;1.00;;;;;;;;;;6207937;23;20170;-88
2021/07/05 11:48:54;;;;;;;1.85;0.98;;;;;;;;;;6208147;23;20198;-89
2021/07/05 11:52:00;;;;;;;2.58;1.00;;;;;;;;;;6204706;23;20278;-89
2021/07/05 11:55:07;;;;;;;5.20;1.10;;;;;;;;;;6207550;23;20181;-87
2021/07/05 11:58:15;;;;;;;3.22;0.93;;;;;;;;;;6207684;23;20170;-87
2021/07/05 12:01:20;;;;;;;3.95;0.80;;;;;;;;;;6208919;23;20169;-90
2021/07/05 12:04:30;;;;;;;1.38;0.88;;;;;;;;;;6209671;23;20173;-89
2021/07/05 12:07:35;;;;;;;2.10;0.82;;;;;;;;;;6208936;22;20165;-90
2021/07/05 12:10:46;;;;;;;3.58;0.80;;;;;;;;;;6210594;23;20170;-88
2021/07/05 12:14:02;;;;;;;1.17;0.80;;;;;;;;;;6209972;23;20209;-89
2021/07/05 12:17:08;;;;;;;1.50;0.90;;;;;;;;;;6208516;23;20175;-88
2021/07/05 12:20:13;;;;;;;1.10;0.70;;;;;;;;;;6209239;23;20240;-89
2021/07/05 12:23:19;;;;;;;1.80;1.00;;;;;;;;;;6211621;23;20171;-90
2021/07/05 12:26:25;;;;;;;3.50;0.70;;;;;;;;;;6210796;23;20182;-88
2021/07/05 12:29:32;;;;;;;2.33;0.88;;;;;;;;;;6210529;23;20198;-90
2021/07/05 12:32:38;;;;;;;3.25;1.10;;;;;;;;;;6210889;23;20526;-90
2021/07/05 12:35:46;;;;;;;5.45;1.92;;;;;;;;;;6210776;23;20171;-89
2021/07/05 12:38:59;;;;;;;1.80;1.00;;;;;;;;;;6211275;23;20150;-90
2021/07/05 12:42:24;;;;;;;1.98;0.90;;;;;;;;;;6210645;23;20174;-90
2021/07/05 12:45:35;;;;;;;4.45;0.90;;;;;;;;;;6211058;23;20441;-90
2021/07/05 12:48:40;;;;;;;2.28;1.02;;;;;;;;;;6208951;23;20194;-89
2021/07/05 12:51:45;;;;;;;1.40;1.02;;;;;;;;;;6209562;22;20375;-89
2021/07/05 12:54:50;;;;;;;5.55;0.82;;;;;;;;;;6209577;23;20239;-89
2021/07/05 12:57:56;;;;;;;3.05;0.90;;;;;;;;;;6208372;23;20174;-89
2021/07/05 13:01:06;;;;;;;1.33;0.80;;;;;;;;;;6191854;23;20166;-90
2021/07/05 13:04:12;;;;;;;1.08;0.70;;;;;;;;;;6209248;23;20179;-89
2021/07/05 13:07:22;;;;;;;3.55;0.93;;;;;;;;;;6209572;23;20165;-89
2021/07/05 13:10:29;;;;;;;2.78;0.80;;;;;;;;;;6209501;23;20166;-88
2021/07/05 13:13:36;;;;;;;3.25;1.00;;;;;;;;;;6208809;23;20239;-90
2021/07/05 13:16:44;;;;;;;2.28;0.80;;;;;;;;;;6210901;23;20162;-88
2021/07/05 13:19:50;;;;;;;4.97;0.90;;;;;;;;;;6230068;23;20705;-89
2021/07/05 13:22:57;;;;;;;1.25;0.75;;;;;;;;;;6210329;23;20166;-88
2021/07/05 13:26:02;;;;;;;1.38;0.63;;;;;;;;;;6210762;23;20175;-89
2021/07/05 13:29:15;;;;;;;2.55;1.10;;;;;;;;;;6208954;22;20190;-88
2021/07/05 13:32:23;;;;;;;2.80;0.85;;;;;;;;;;6211428;23;20186;-90
2021/07/05 13:35:29;;;;;;;3.25;0.82;;;;;;;;;;6209853;23;20170;-88
2021/07/05 13:38:35;;;;;;;4.45;0.80;;;;;;;;;;6210387;23;20187;-89
2021/07/05 13:41:40;;;;;;;5.63;1.05;;;;;;;;;;6210053;23;20171;-88
2021/07/05 13:44:47;;;;;;;0.70;0.70;;;;;;;;;;6208380;23;20170;-89
2021/07/05 13:47:55;;;;;;;1.80;0.90;;;;;;;;;;6209208;23;20167;-89
2021/07/05 13:51:05;;;;;;;3.05;0.70;;;;;;;;;;6208636;23;20247;-89
2021/07/05 13:54:34;;;;;;;3.25;1.48;;;;;;;;;;6210421;23;20238;-87
2021/07/05 13:57:46;;;;;;;0.90;0.60;;;;;;;;;;6210665;23;20166;-89
2021/07/05 14:00:53;;;;;;;1.23;0.80;;;;;;;;;;6211120;22;20159;-88
2021/07/05 14:04:00;;;;;;;4.82;0.90;;;;;;;;;;6211538;23;20159;-90
2021/07/05 14:07:07;;;;;;;6.45;0.95;;;;;;;;;;6211517;23;20179;-89
2021/07/05 14:10:14;;;;;;;1.77;0.93;;;;;;;;;;6214542;23;20195;-89
2021/07/05 14:13:20;;;;;;;1.73;0.80;;;;;;;;;;6211253;23;20622;-89
2021/07/05 14:16:32;;;;;;;1.85;0.90;;;;;;;;;;6209537;23;20203;-88
2021/07/05 14:19:40;;;;;;;1.85;0.60;;;;;;;;;;6210920;22;20167;-88
2021/07/05 14:22:45;;;;;;;2.15;0.73;;;;;;;;;;6209976;23;20271;-88
2021/07/05 14:25:51;;;;;;;4.50;0.82;;;;;;;;;;6209218;23;20182;-89
2021/07/05 14:28:56;;;;;;;1.73;0.68;;;;;;;;;;6209660;23;20186;-89
2021/07/05 14:32:01;;;;;;;2.42;0.93;;;;;;;;;;6209588;23;20218;-88
2021/07/05 14:35:08;;;;;;;1.50;0.70;;;;;;;;;;6208066;23;20166;-89
2021/07/05 14:38:14;;;;;;;1.55;0.80;;;;;;;;;;6207972;23;20240;-87
2021/07/05 14:41:19;;;;;;;1.08;0.70;;;;;;;;;;6210948;23;20218;-88
2021/07/05 14:44:26;;;;;;;4.78;0.77;;;;;;;;;;6210407;23;20236;-88
2021/07/05 14:47:31;;;;;;;3.35;1.20;;;;;;;;;;6212662;23;20183;-88
2021/07/05 14:50:39;;;;;;;0.80;0.70;;;;;;;;;;6208954;23;20191;-88
2021/07/05 14:53:44;;;;;;;1.00;0.73;;;;;;;;;;6210807;23;20171;-88
2021/07/05 14:56:49;;;;;;;2.50;0.70;;;;;;;;;;6208482;23;20175;-88
2021/07/05 14:59:54;;;;;;;1.20;0.60;;;;;;;;;;6209387;23;20232;-90
2021/07/05 15:03:00;;;;;;;2.90;1.00;;;;;;;;;;6209281;23;20174;-88
2021/07/05 15:06:07;;;;;;;2.33;0.70;;;;;;;;;;6211243;23;20178;-88
2021/07/05 15:09:12;;;;;;;4.03;1.15;;;;;;;;;;6210280;23;20187;-87
2021/07/05 15:12:17;;;;;;;1.75;0.95;;;;;;;;;;6209874;23;20218;-88
2021/07/05 15:15:23;;;;;;;4.35;0.90;;;;;;;;;;6210045;23;20167;-88
2021/07/05 15:18:29;;;;;;;2.03;0.98;;;;;;;;;;6209325;23;20224;-89
2021/07/05 15:21:36;;;;;;;3.83;0.90;;;;;;;;;;6228812;23;20257;-88
2021/07/05 15:24:44;;;;;;;2.00;1.30;;;;;;;;;;6209516;23;20167;-88
2021/07/05 15:27:49;;;;;;;1.77;0.95;;;;;;;;;;6209710;23;20167;-90
2021/07/05 15:30:54;;;;;;;2.28;1.00;;;;;;;;;;6207843;23;20190;-87
2021/07/05 15:34:01;;;;;;;2.03;0.90;;;;;;;;;;6211605;23;20159;-89
2021/07/05 15:37:09;;;;;;;2.33;0.85;;;;;;;;;;6212912;23;20215;-89
2021/07/05 15:40:15;;;;;;;3.08;1.00;;;;;;;;;;6210691;23;20183;-89
2021/07/05 15:43:21;;;;;;;2.05;0.85;;;;;;;;;;6212245;23;20174;-89
2021/07/05 15:46:26;;;;;;;5.45;1.15;;;;;;;;;;6210701;23;20250;-89
2021/07/05 15:49:31;;;;;;;3.13;1.10;;;;;;;;;;6212447;23;20194;-89
2021/07/05 15:52:38;;;;;;;2.22;0.95;;;;;;;;;;6212982;23;20171;-88
2021/07/05 15:55:43;;;;;;;2.25;1.08;;;;;;;;;;6229196;22;20167;-89
2021/07/05 15:58:48;;;;;;;2.30;0.88;;;;;;;;;;6213627;23;20230;-88
2021/07/05 16:01:53;;;;;;;3.58;0.80;;;;;;;;;;6211295;23;20244;-88
2021/07/05 16:04:58;;;;;;;3.70;0.80;;;;;;;;;;6209339;23;20503;-89
2021/07/05 16:08:05;;;;;;;1.98;0.90;;;;;;;;;;6210690;23;20175;-88
2021/07/05 16:11:10;;;;;;;2.67;1.05;;;;;;;;;;6209280;23;20236;-88
2021/07/05 16:14:15;;;;;;;1.67;1.20;;;;;;;;;;6207495;23;20244;-88
2021/07/05 16:17:21;;;;;;;3.78;1.00;;;;;;;;;;6209887;23;20170;-87
2021/07/05 16:20:27;;;;;;;1.92;0.88;;;;;;;;;;6209592;23;20167;-88
2021/07/05 16:23:36;;;;;;;3.13;0.80;;;;;;;;;;6208055;23;20183;-87
2021/07/05 16:26:41;;;;;;;1.88;1.10;;;;;;;;;;6210681;23;20184;-88
2021/07/05 16:29:46;;;;;;;3.50;0.88;;;;;;;;;;6209520;23;20191;-89
2021/07/05 16:32:51;;;;;;;4.95;1.42;;;;;;;;;;6208254;23;20183;-89
2021/07/05 16:35:56;;;;;;;3.13;1.00;;;;;;;;;;6210461;23;20178;-88
2021/07/05 16:39:05;;;;;;;2.97;1.20;;;;;;;;;;6208231;23;20174;-88
2021/07/05 16:42:10;;;;;;;2.35;1.02;;;;;;;;;;6208720;23;20187;-88
2021/07/05 16:45:18;;;;;;;1.20;0.90;;;;;;;;;;6207929;23;20250;-89
2021/07/05 16:48:23;;;;;;;4.55;1.20;;;;;;;;;;6208297;23;20168;-87
2021/07/05 16:51:41;;;;;;;3.38;1.25;;;;;;;;;;6208745;23;20171;-88
2021/07/05 16:54:48;;;;;;;1.23;1.00;;;;;;;;;;6208644;23;20176;-88
2021/07/05 16:57:54;;;;;;;1.70;1.00;;;;;;;;;;6209064;23;20246;-89
2021/07/05 17:01:08;;;;;;;5.80;1.60;;;;;;;;;;6210299;23;20171;-89
2021/07/05 17:04:14;;;;;;;4.35;1.20;;;;;;;;;;6209643;23;20166;-88
2021/07/05 17:07:20;;;;;;;2.65;1.00;;;;;;;;;;6211124;23;20179;-88
2021/07/05 17:10:27;;;;;;;4.10;1.00;;;;;;;;;;6208003;23;20195;-86
2021/07/05 17:13:33;;;;;;;2.00;1.40;;;;;;;;;;6209559;23;20167;-88
2021/07/05 17:16:46;;;;;;;45.38;27.27;;;;;;;;;;6192313;23;20230;-88
2021/07/05 17:19:51;;;;;;;136.93;82.25;;;;;;;;;;6209128;23;20743;-88
2021/07/05 17:22:57;;;;;;;97.82;56.78;;;;;;;;;;6209710;23;20282;-90
2021/07/05 17:26:03;;;;;;;35.78;20.77;;;;;;;;;;6227962;23;20191;-87
2021/07/05 17:29:09;;;;;;;10.93;6.57;;;;;;;;;;6210764;23;20240;-89
2021/07/05 17:32:16;;;;;;;11.38;4.65;;;;;;;;;;6209291;23;20595;-88
2021/07/05 17:35:22;;;;;;;7.47;3.42;;;;;;;;;;6211055;23;20251;-88
2021/07/05 17:38:29;;;;;;;3.35;1.40;;;;;;;;;;6213285;23;20162;-87
2021/07/05 17:41:36;;;;;;;5.85;2.20;;;;;;;;;;6210937;23;20172;-87
2021/07/05 17:44:41;;;;;;;2.13;1.50;;;;;;;;;;6209638;23;20175;-89
2021/07/05 17:47:48;;;;;;;3.15;1.20;;;;;;;;;;6209017;23;20495;-89
2021/07/05 17:50:53;;;;;;;4.20;1.50;;;;;;;;;;6207816;23;20191;-89
2021/07/05 17:53:58;;;;;;;3.17;1.13;;;;;;;;;;6208626;23;20242;-87
2021/07/05 17:57:05;;;;;;;15.27;8.85;;;;;;;;;;6208873;23;20183;-88
2021/07/05 18:00:15;;;;;;;3.15;1.63;;;;;;;;;;6207746;23;20212;-88
2021/07/05 18:03:20;;;;;;;7.75;1.48;;;;;;;;;;6210241;23;20163;-89
2021/07/05 18:06:25;;;;;;;4.90;1.70;;;;;;;;;;6209627;23;20250;-89
2021/07/05 18:09:34;;;;;;;3.55;1.20;;;;;;;;;;6210332;23;20213;-89
2021/07/05 18:12:41;;;;;;;2.90;1.08;;;;;;;;;;6209840;23;20175;-89
2021/07/05 18:15:48;;;;;;;1.70;1.00;;;;;;;;;;6208946;23;20175;-89
2021/07/05 18:18:53;;;;;;;3.33;1.00;;;;;;;;;;6209536;23;20198;-88
2021/07/05 18:21:59;;;;;;;2.03;1.10;;;;;;;;;;6209654;23;20180;-89
2021/07/05 18:25:04;;;;;;;1.35;1.10;;;;;;;;;;6210270;23;20179;-90
2021/07/05 18:28:11;;;;;;;1.40;0.90;;;;;;;;;;6209844;23;20262;-90
2021/07/05 18:31:15;;;;;;;5.32;1.00;;;;;;;;;;6208721;23;20253;-88
2021/07/05 18:34:21;;;;;;;1.10;1.00;;;;;;;;;;6208732;23;20174;-86
2021/07/05 18:37:29;;;;;;;3.25;1.00;;;;;;;;;;6209209;23;20249;-88
2021/07/05 18:40:34;;;;;;;2.58;1.20;;;;;;;;;;6208896;23;20218;-88
2021/07/05 18:43:42;;;;;;;5.10;1.40;;;;;;;;;;6210250;23;20171;-88
2021/07/05 18:46:47;;;;;;;4.20;1.00;;;;;;;;;;6209235;23;20307;-89
2021/07/05 18:49:53;;;;;;;2.15;1.10;;;;;;;;;;6207838;23;20210;-88
2021/07/05 18:52:58;;;;;;;4.45;1.05;;;;;;;;;;6209084;23;20230;-88